Terminal Aerodrome Forecast
Issued by NWS

Home | Current Version | Previous Version | Text Only | Print | Product List | Glossary On
Versions: 1 2 3 4 5 6 7 8 9 10 11 12 13 14 15 16
375
FTUS43 KMPX 211736
TAFAXN
TAF
KAXN 211736Z 2118/2218 15012KT P6SM FEW020 SCT090 BKN250
     FM220300 11007KT P6SM -SHRA VCTS SCT050 BKN090CB
     FM220600 09007KT P6SM BKN025 BKN035
     FM221200 31007KT P6SM SCT070=

USA.gov is the U.S. government's official web portal to all federal, state and local government web resources and services.